Point Lay Lrrs Airport
PPIZ : now visible

Aeroporto :











RITROVATECI SU...

 
LOGIN :

Iscrizione | Disclaimer

   EN    FR    IT 

 









Sommario :    VFR   VFR Marginale   IFR   IFR Intensivo   IFR Molto Intensivo
Visibilità : 
Base nubi : 
>= 8 km
>= 3000ft
5 / 8 km
1000 / 3000 ft
1500m / 5 km
500 / 1000 ft
800 / 1500m
200 / 500 ft
< 800m
< 200 ft
Simboli :   Temporali  Nebbia  Neve Forte  Precipitazioni Forti  Vento > 20 kt






- Altitudine del aeroporto : 22 ft
- Codice IATA : PIZ


PPIZ - Point Lay Lrrs

ULTIMO METAR :
  • 280407Z AUTO 16005KT 1 1/2SM -SN BR BKN013 BKN027 OVC043 M01/M02 A2965 RMK AO2 UPE01SNB01 FZRANO PNO $

METARs OBSOLETI :
  • 280356Z AUTO 17005KT 9SM UP FEW015 OVC041 M01/M02 A2965 RMK AO2 UPE22B40SNB22E40B44E53 SLP044 T10111022 FZRANO PNO $
  • 280256Z AUTO 14003KT 10SM UP OVC033 00/M01 A2965 RMK AO2 UPB40SNE40 SLP044 6//// T00001011 56002 FZRANO PNO $
  • 280156Z AUTO 11004KT 9SM -SN OVC037 00/M01 A2965 RMK AO2 SLP043 T00001011 FZRANO PNO $
  • 280111Z AUTO 11004KT 4SM -SN BR SCT029 OVC035 00/M01 A2965 RMK AO2 FZRANO PNO $

TAF N/A
FIR PAZA / America del Nord



MetMap, La meteo Aeronautica in un colpo d'occhio ! - Copyright ORBIFLY Dicembre 2007 - Disclaimer

ORBIFLY MET'MAP TEAM :

Programmazione e sviluppo : Alexandra Zaïnal
Concezione : Baudouin d'Aumeries
Aiuto per la programmazione : Marc-Olivier Méhu
Supporto tecnico e logistico : Manuel Goepfert
Aiuto per la traduzione : Arnaldo La Scala

Contatto : metmap@orbifly.com




FONTI E CREDITI :

   NOAA       Earth
Advisory